sensor_id;sensor_type;location;lat;lon;timestamp;P1;durP1;ratioP1;P2;durP2;ratioP2
39362;SDS011;25088;43.238;23.110;2023-03-14T00:01:50;0.40;;;0.40;;
39362;SDS011;25088;43.238;23.110;2023-03-14T00:04:15;0.40;;;0.40;;
39362;SDS011;25088;43.238;23.110;2023-03-14T00:06:41;0.50;;;0.50;;
39362;SDS011;25088;43.238;23.110;2023-03-14T00:09:07;0.47;;;0.47;;
39362;SDS011;25088;43.238;23.110;2023-03-14T00:11:32;0.50;;;0.50;;
39362;SDS011;25088;43.238;23.110;2023-03-14T00:13:58;0.50;;;0.50;;
39362;SDS011;25088;43.238;23.110;2023-03-14T00:16:25;0.50;;;0.50;;
39362;SDS011;25088;43.238;23.110;2023-03-14T00:18:51;0.40;;;0.40;;
39362;SDS011;25088;43.238;23.110;2023-03-14T00:21:16;0.40;;;0.40;;
39362;SDS011;25088;43.238;23.110;2023-03-14T00:23:44;0.40;;;0.40;;
39362;SDS011;25088;43.238;23.110;2023-03-14T00:26:11;0.50;;;0.50;;
39362;SDS011;25088;43.238;23.110;2023-03-14T00:28:38;0.40;;;0.40;;
39362;SDS011;25088;43.238;23.110;2023-03-14T00:31:05;0.50;;;0.50;;
39362;SDS011;25088;43.238;23.110;2023-03-14T00:33:32;0.50;;;0.50;;
39362;SDS011;25088;43.238;23.110;2023-03-14T00:35:59;0.50;;;0.50;;
39362;SDS011;25088;43.238;23.110;2023-03-14T00:38:26;0.50;;;0.50;;
39362;SDS011;25088;43.238;23.110;2023-03-14T00:40:52;0.50;;;0.50;;
39362;SDS011;25088;43.238;23.110;2023-03-14T00:43:18;0.52;;;0.52;;
39362;SDS011;25088;43.238;23.110;2023-03-14T00:45:47;0.50;;;0.50;;
39362;SDS011;25088;43.238;23.110;2023-03-14T00:48:13;0.50;;;0.50;;
39362;SDS011;25088;43.238;23.110;2023-03-14T00:50:39;0.50;;;0.50;;
39362;SDS011;25088;43.238;23.110;2023-03-14T00:53:04;0.50;;;0.50;;
39362;SDS011;25088;43.238;23.110;2023-03-14T00:55:30;0.50;;;0.50;;
39362;SDS011;25088;43.238;23.110;2023-03-14T00:57:55;0.50;;;0.50;;
39362;SDS011;25088;43.238;23.110;2023-03-14T01:00:21;0.50;;;0.50;;
39362;SDS011;25088;43.238;23.110;2023-03-14T01:02:46;0.50;;;0.50;;
39362;SDS011;25088;43.238;23.110;2023-03-14T01:05:12;0.50;;;0.50;;
39362;SDS011;25088;43.238;23.110;2023-03-14T01:07:37;0.50;;;0.50;;
39362;SDS011;25088;43.238;23.110;2023-03-14T01:10:04;0.50;;;0.50;;
39362;SDS011;25088;43.238;23.110;2023-03-14T01:12:31;0.50;;;0.50;;
39362;SDS011;25088;43.238;23.110;2023-03-14T01:14:56;0.40;;;0.40;;
39362;SDS011;25088;43.238;23.110;2023-03-14T01:17:22;0.47;;;0.47;;
39362;SDS011;25088;43.238;23.110;2023-03-14T01:19:48;0.45;;;0.45;;
39362;SDS011;25088;43.238;23.110;2023-03-14T01:22:13;0.40;;;0.40;;
39362;SDS011;25088;43.238;23.110;2023-03-14T01:24:39;0.40;;;0.40;;
39362;SDS011;25088;43.238;23.110;2023-03-14T01:27:04;0.50;;;0.50;;
39362;SDS011;25088;43.238;23.110;2023-03-14T01:29:30;0.40;;;0.40;;
39362;SDS011;25088;43.238;23.110;2023-03-14T01:31:55;0.50;;;0.50;;
39362;SDS011;25088;43.238;23.110;2023-03-14T01:34:21;0.40;;;0.40;;
39362;SDS011;25088;43.238;23.110;2023-03-14T01:36:46;0.50;;;0.50;;
39362;SDS011;25088;43.238;23.110;2023-03-14T01:39:12;0.40;;;0.40;;
39362;SDS011;25088;43.238;23.110;2023-03-14T01:41:38;0.50;;;0.50;;
39362;SDS011;25088;43.238;23.110;2023-03-14T01:44:04;0.40;;;0.40;;
39362;SDS011;25088;43.238;23.110;2023-03-14T01:59:41;0.50;;;0.50;;
39362;SDS011;25088;43.238;23.110;2023-03-14T02:02:17;0.40;;;0.40;;
39362;SDS011;25088;43.238;23.110;2023-03-14T02:04:43;0.40;;;0.40;;
39362;SDS011;25088;43.238;23.110;2023-03-14T02:07:19;0.50;;;0.50;;
39362;SDS011;25088;43.238;23.110;2023-03-14T02:09:52;0.40;;;0.40;;
39362;SDS011;25088;43.238;23.110;2023-03-14T02:12:20;0.40;;;0.40;;
39362;SDS011;25088;43.238;23.110;2023-03-14T02:14:47;0.45;;;0.45;;
39362;SDS011;25088;43.238;23.110;2023-03-14T02:17:16;0.50;;;0.50;;
39362;SDS011;25088;43.238;23.110;2023-03-14T02:22:36;0.50;;;0.50;;
39362;SDS011;25088;43.238;23.110;2023-03-14T02:25:07;0.47;;;0.47;;
39362;SDS011;25088;43.238;23.110;2023-03-14T02:27:37;0.50;;;0.50;;
39362;SDS011;25088;43.238;23.110;2023-03-14T02:30:05;0.50;;;0.50;;
39362;SDS011;25088;43.238;23.110;2023-03-14T02:32:36;0.50;;;0.50;;
39362;SDS011;25088;43.238;23.110;2023-03-14T02:35:06;0.50;;;0.50;;
39362;SDS011;25088;43.238;23.110;2023-03-14T02:37:38;0.50;;;0.50;;
39362;SDS011;25088;43.238;23.110;2023-03-14T02:40:08;0.50;;;0.50;;
39362;SDS011;25088;43.238;23.110;2023-03-14T02:42:35;0.50;;;0.50;;
39362;SDS011;25088;43.238;23.110;2023-03-14T02:47:36;0.52;;;0.52;;
39362;SDS011;25088;43.238;23.110;2023-03-14T02:50:09;0.50;;;0.50;;
39362;SDS011;25088;43.238;23.110;2023-03-14T02:52:38;0.50;;;0.50;;
39362;SDS011;25088;43.238;23.110;2023-03-14T02:55:04;0.50;;;0.50;;
39362;SDS011;25088;43.238;23.110;2023-03-14T02:57:30;0.50;;;0.50;;
39362;SDS011;25088;43.238;23.110;2023-03-14T02:59:58;0.52;;;0.52;;
39362;SDS011;25088;43.238;23.110;2023-03-14T03:02:25;0.40;;;0.40;;
39362;SDS011;25088;43.238;23.110;2023-03-14T03:04:51;0.50;;;0.50;;
39362;SDS011;25088;43.238;23.110;2023-03-14T03:07:16;0.50;;;0.50;;
39362;SDS011;25088;43.238;23.110;2023-03-14T03:09:42;0.50;;;0.50;;
39362;SDS011;25088;43.238;23.110;2023-03-14T03:12:07;0.50;;;0.50;;
39362;SDS011;25088;43.238;23.110;2023-03-14T03:14:33;0.47;;;0.47;;
39362;SDS011;25088;43.238;23.110;2023-03-14T03:16:58;0.40;;;0.40;;
39362;SDS011;25088;43.238;23.110;2023-03-14T03:19:24;0.50;;;0.50;;
39362;SDS011;25088;43.238;23.110;2023-03-14T03:21:49;0.50;;;0.50;;
39362;SDS011;25088;43.238;23.110;2023-03-14T03:24:15;0.40;;;0.40;;
39362;SDS011;25088;43.238;23.110;2023-03-14T03:26:40;0.40;;;0.40;;
39362;SDS011;25088;43.238;23.110;2023-03-14T03:29:06;0.50;;;0.50;;
39362;SDS011;25088;43.238;23.110;2023-03-14T03:31:31;0.50;;;0.50;;
39362;SDS011;25088;43.238;23.110;2023-03-14T03:33:57;0.40;;;0.40;;
39362;SDS011;25088;43.238;23.110;2023-03-14T03:36:23;0.40;;;0.40;;
39362;SDS011;25088;43.238;23.110;2023-03-14T03:38:49;0.40;;;0.40;;
39362;SDS011;25088;43.238;23.110;2023-03-14T03:41:15;0.50;;;0.50;;
39362;SDS011;25088;43.238;23.110;2023-03-14T03:43:40;0.40;;;0.40;;
39362;SDS011;25088;43.238;23.110;2023-03-14T03:46:06;0.50;;;0.50;;
39362;SDS011;25088;43.238;23.110;2023-03-14T03:48:32;0.50;;;0.50;;
39362;SDS011;25088;43.238;23.110;2023-03-14T03:50:58;0.50;;;0.50;;
39362;SDS011;25088;43.238;23.110;2023-03-14T03:53:23;0.50;;;0.50;;
39362;SDS011;25088;43.238;23.110;2023-03-14T03:55:49;0.40;;;0.40;;
39362;SDS011;25088;43.238;23.110;2023-03-14T03:58:15;0.50;;;0.50;;
39362;SDS011;25088;43.238;23.110;2023-03-14T04:00:40;0.40;;;0.40;;
39362;SDS011;25088;43.238;23.110;2023-03-14T04:03:06;0.45;;;0.45;;
39362;SDS011;25088;43.238;23.110;2023-03-14T04:05:31;0.40;;;0.40;;
39362;SDS011;25088;43.238;23.110;2023-03-14T04:07:59;0.50;;;0.50;;
39362;SDS011;25088;43.238;23.110;2023-03-14T04:10:24;0.40;;;0.40;;
39362;SDS011;25088;43.238;23.110;2023-03-14T04:12:50;0.50;;;0.50;;
39362;SDS011;25088;43.238;23.110;2023-03-14T04:15:15;0.50;;;0.50;;
39362;SDS011;25088;43.238;23.110;2023-03-14T04:17:41;0.50;;;0.50;;
39362;SDS011;25088;43.238;23.110;2023-03-14T04:20:07;0.50;;;0.50;;
39362;SDS011;25088;43.238;23.110;2023-03-14T04:22:35;0.50;;;0.50;;
39362;SDS011;25088;43.238;23.110;2023-03-14T04:25:01;0.50;;;0.50;;
39362;SDS011;25088;43.238;23.110;2023-03-14T04:27:28;0.50;;;0.50;;
39362;SDS011;25088;43.238;23.110;2023-03-14T04:29:54;0.50;;;0.50;;
39362;SDS011;25088;43.238;23.110;2023-03-14T04:32:19;0.40;;;0.40;;
39362;SDS011;25088;43.238;23.110;2023-03-14T04:34:45;0.50;;;0.50;;
39362;SDS011;25088;43.238;23.110;2023-03-14T04:37:10;0.50;;;0.50;;
39362;SDS011;25088;43.238;23.110;2023-03-14T04:39:36;0.50;;;0.50;;
39362;SDS011;25088;43.238;23.110;2023-03-14T04:42:01;0.50;;;0.50;;
39362;SDS011;25088;43.238;23.110;2023-03-14T04:44:27;0.50;;;0.50;;
39362;SDS011;25088;43.238;23.110;2023-03-14T04:46:52;0.50;;;0.50;;
39362;SDS011;25088;43.238;23.110;2023-03-14T04:49:18;0.50;;;0.50;;
39362;SDS011;25088;43.238;23.110;2023-03-14T04:51:43;0.50;;;0.50;;
39362;SDS011;25088;43.238;23.110;2023-03-14T04:54:09;0.52;;;0.52;;
39362;SDS011;25088;43.238;23.110;2023-03-14T04:56:34;0.50;;;0.50;;
39362;SDS011;25088;43.238;23.110;2023-03-14T04:59:01;0.50;;;0.50;;
39362;SDS011;25088;43.238;23.110;2023-03-14T05:01:26;0.50;;;0.50;;
39362;SDS011;25088;43.238;23.110;2023-03-14T05:03:52;0.50;;;0.50;;
39362;SDS011;25088;43.238;23.110;2023-03-14T05:06:17;0.50;;;0.50;;
39362;SDS011;25088;43.238;23.110;2023-03-14T05:08:43;0.40;;;0.40;;
39362;SDS011;25088;43.238;23.110;2023-03-14T05:11:09;0.50;;;0.50;;
39362;SDS011;25088;43.238;23.110;2023-03-14T05:13:35;0.50;;;0.50;;
39362;SDS011;25088;43.238;23.110;2023-03-14T05:16:07;0.50;;;0.50;;
39362;SDS011;25088;43.238;23.110;2023-03-14T05:18:34;0.50;;;0.50;;
39362;SDS011;25088;43.238;23.110;2023-03-14T05:21:00;0.40;;;0.40;;
39362;SDS011;25088;43.238;23.110;2023-03-14T05:23:26;0.40;;;0.40;;
39362;SDS011;25088;43.238;23.110;2023-03-14T05:25:52;0.40;;;0.40;;
39362;SDS011;25088;43.238;23.110;2023-03-14T05:28:17;0.50;;;0.50;;
39362;SDS011;25088;43.238;23.110;2023-03-14T05:30:43;0.50;;;0.50;;
39362;SDS011;25088;43.238;23.110;2023-03-14T05:33:08;0.40;;;0.40;;
39362;SDS011;25088;43.238;23.110;2023-03-14T05:35:33;0.40;;;0.40;;
39362;SDS011;25088;43.238;23.110;2023-03-14T05:37:59;0.40;;;0.40;;
39362;SDS011;25088;43.238;23.110;2023-03-14T05:40:25;0.40;;;0.40;;
39362;SDS011;25088;43.238;23.110;2023-03-14T05:42:50;0.50;;;0.50;;
39362;SDS011;25088;43.238;23.110;2023-03-14T05:45:17;0.50;;;0.50;;
39362;SDS011;25088;43.238;23.110;2023-03-14T05:47:42;0.40;;;0.40;;
39362;SDS011;25088;43.238;23.110;2023-03-14T05:50:08;0.40;;;0.40;;
39362;SDS011;25088;43.238;23.110;2023-03-14T05:52:34;0.40;;;0.40;;
39362;SDS011;25088;43.238;23.110;2023-03-14T05:54:59;0.40;;;0.40;;
39362;SDS011;25088;43.238;23.110;2023-03-14T05:57:25;0.30;;;0.30;;
39362;SDS011;25088;43.238;23.110;2023-03-14T05:59:50;0.30;;;0.30;;
39362;SDS011;25088;43.238;23.110;2023-03-14T06:02:16;0.30;;;0.30;;
39362;SDS011;25088;43.238;23.110;2023-03-14T06:04:41;0.30;;;0.30;;
39362;SDS011;25088;43.238;23.110;2023-03-14T06:07:07;0.20;;;0.20;;
39362;SDS011;25088;43.238;23.110;2023-03-14T06:09:32;0.20;;;0.20;;
39362;SDS011;25088;43.238;23.110;2023-03-14T06:11:57;0.20;;;0.20;;
39362;SDS011;25088;43.238;23.110;2023-03-14T06:14:23;0.20;;;0.20;;
39362;SDS011;25088;43.238;23.110;2023-03-14T06:16:49;0.20;;;0.20;;
39362;SDS011;25088;43.238;23.110;2023-03-14T06:19:15;0.20;;;0.20;;
39362;SDS011;25088;43.238;23.110;2023-03-14T06:21:41;0.20;;;0.20;;
39362;SDS011;25088;43.238;23.110;2023-03-14T06:24:07;0.20;;;0.20;;
39362;SDS011;25088;43.238;23.110;2023-03-14T06:26:33;0.10;;;0.10;;
39362;SDS011;25088;43.238;23.110;2023-03-14T06:28:58;0.15;;;0.15;;
39362;SDS011;25088;43.238;23.110;2023-03-14T06:31:28;0.10;;;0.10;;
39362;SDS011;25088;43.238;23.110;2023-03-14T06:33:55;0.10;;;0.10;;
39362;SDS011;25088;43.238;23.110;2023-03-14T06:36:21;0.10;;;0.10;;
39362;SDS011;25088;43.238;23.110;2023-03-14T06:38:46;0.10;;;0.10;;
39362;SDS011;25088;43.238;23.110;2023-03-14T06:41:12;0.10;;;0.10;;
39362;SDS011;25088;43.238;23.110;2023-03-14T06:43:37;0.10;;;0.10;;
39362;SDS011;25088;43.238;23.110;2023-03-14T06:46:02;0.10;;;0.10;;
39362;SDS011;25088;43.238;23.110;2023-03-14T06:48:28;0.10;;;0.10;;
39362;SDS011;25088;43.238;23.110;2023-03-14T06:50:53;0.10;;;0.10;;
39362;SDS011;25088;43.238;23.110;2023-03-14T06:53:19;0.10;;;0.10;;
39362;SDS011;25088;43.238;23.110;2023-03-14T06:55:44;0.10;;;0.10;;
39362;SDS011;25088;43.238;23.110;2023-03-14T06:58:10;0.10;;;0.10;;
39362;SDS011;25088;43.238;23.110;2023-03-14T07:00:36;0.10;;;0.10;;
39362;SDS011;25088;43.238;23.110;2023-03-14T07:03:02;0.10;;;0.10;;
39362;SDS011;25088;43.238;23.110;2023-03-14T07:05:27;0.10;;;0.10;;
39362;SDS011;25088;43.238;23.110;2023-03-14T07:07:53;0.10;;;0.10;;
39362;SDS011;25088;43.238;23.110;2023-03-14T07:10:18;0.10;;;0.10;;
39362;SDS011;25088;43.238;23.110;2023-03-14T07:12:44;0.10;;;0.10;;
39362;SDS011;25088;43.238;23.110;2023-03-14T07:15:10;0.10;;;0.10;;
39362;SDS011;25088;43.238;23.110;2023-03-14T07:17:36;0.10;;;0.10;;
39362;SDS011;25088;43.238;23.110;2023-03-14T07:20:01;0.10;;;0.10;;
39362;SDS011;25088;43.238;23.110;2023-03-14T07:22:29;0.10;;;0.10;;
39362;SDS011;25088;43.238;23.110;2023-03-14T07:24:54;0.10;;;0.10;;
39362;SDS011;25088;43.238;23.110;2023-03-14T07:27:20;0.00;;;0.00;;
39362;SDS011;25088;43.238;23.110;2023-03-14T07:29:45;0.00;;;0.00;;
39362;SDS011;25088;43.238;23.110;2023-03-14T07:32:10;0.00;;;0.00;;
39362;SDS011;25088;43.238;23.110;2023-03-14T07:34:40;0.00;;;0.00;;
39362;SDS011;25088;43.238;23.110;2023-03-14T07:37:08;0.00;;;0.00;;
39362;SDS011;25088;43.238;23.110;2023-03-14T07:39:34;0.00;;;0.00;;
39362;SDS011;25088;43.238;23.110;2023-03-14T07:42:00;0.10;;;0.10;;
39362;SDS011;25088;43.238;23.110;2023-03-14T07:44:25;0.00;;;0.00;;
39362;SDS011;25088;43.238;23.110;2023-03-14T07:46:51;0.00;;;0.00;;
39362;SDS011;25088;43.238;23.110;2023-03-14T07:49:17;0.00;;;0.00;;
39362;SDS011;25088;43.238;23.110;2023-03-14T07:51:42;0.10;;;0.10;;
39362;SDS011;25088;43.238;23.110;2023-03-14T07:54:09;0.00;;;0.00;;
39362;SDS011;25088;43.238;23.110;2023-03-14T07:56:35;0.00;;;0.00;;
39362;SDS011;25088;43.238;23.110;2023-03-14T07:59:00;0.10;;;0.10;;
39362;SDS011;25088;43.238;23.110;2023-03-14T08:01:26;0.00;;;0.00;;
39362;SDS011;25088;43.238;23.110;2023-03-14T08:03:52;0.00;;;0.00;;
39362;SDS011;25088;43.238;23.110;2023-03-14T08:06:17;0.00;;;0.00;;
39362;SDS011;25088;43.238;23.110;2023-03-14T08:08:43;0.00;;;0.00;;
39362;SDS011;25088;43.238;23.110;2023-03-14T08:11:08;0.00;;;0.00;;
39362;SDS011;25088;43.238;23.110;2023-03-14T08:13:34;0.00;;;0.00;;
39362;SDS011;25088;43.238;23.110;2023-03-14T08:16:00;0.00;;;0.00;;
39362;SDS011;25088;43.238;23.110;2023-03-14T08:18:26;0.00;;;0.00;;
39362;SDS011;25088;43.238;23.110;2023-03-14T08:20:51;0.00;;;0.00;;
39362;SDS011;25088;43.238;23.110;2023-03-14T08:23:17;0.00;;;0.00;;
39362;SDS011;25088;43.238;23.110;2023-03-14T08:25:42;0.00;;;0.00;;
39362;SDS011;25088;43.238;23.110;2023-03-14T08:28:08;0.00;;;0.00;;
39362;SDS011;25088;43.238;23.110;2023-03-14T08:30:33;0.00;;;0.00;;
39362;SDS011;25088;43.238;23.110;2023-03-14T08:32:59;0.00;;;0.00;;
39362;SDS011;25088;43.238;23.110;2023-03-14T08:35:25;0.00;;;0.00;;
39362;SDS011;25088;43.238;23.110;2023-03-14T08:37:51;0.00;;;0.00;;
39362;SDS011;25088;43.238;23.110;2023-03-14T08:40:17;0.00;;;0.00;;
39362;SDS011;25088;43.238;23.110;2023-03-14T08:42:43;0.00;;;0.00;;
39362;SDS011;25088;43.238;23.110;2023-03-14T08:45:10;0.00;;;0.00;;
39362;SDS011;25088;43.238;23.110;2023-03-14T08:47:38;0.00;;;0.00;;
39362;SDS011;25088;43.238;23.110;2023-03-14T08:50:05;0.00;;;0.00;;
39362;SDS011;25088;43.238;23.110;2023-03-14T08:52:31;0.00;;;0.00;;
39362;SDS011;25088;43.238;23.110;2023-03-14T08:54:57;0.00;;;0.00;;
39362;SDS011;25088;43.238;23.110;2023-03-14T08:57:23;0.00;;;0.00;;
39362;SDS011;25088;43.238;23.110;2023-03-14T08:59:53;0.00;;;0.00;;
39362;SDS011;25088;43.238;23.110;2023-03-14T09:02:20;0.00;;;0.00;;
39362;SDS011;25088;43.238;23.110;2023-03-14T09:04:46;0.00;;;0.00;;
39362;SDS011;25088;43.238;23.110;2023-03-14T09:07:12;0.00;;;0.00;;
39362;SDS011;25088;43.238;23.110;2023-03-14T09:09:37;0.00;;;0.00;;
39362;SDS011;25088;43.238;23.110;2023-03-14T09:12:03;0.00;;;0.00;;
39362;SDS011;25088;43.238;23.110;2023-03-14T09:14:29;0.00;;;0.00;;
39362;SDS011;25088;43.238;23.110;2023-03-14T09:16:55;0.00;;;0.00;;
39362;SDS011;25088;43.238;23.110;2023-03-14T09:19:20;0.00;;;0.00;;
39362;SDS011;25088;43.238;23.110;2023-03-14T09:21:46;0.00;;;0.00;;
39362;SDS011;25088;43.238;23.110;2023-03-14T09:24:12;0.00;;;0.00;;
39362;SDS011;25088;43.238;23.110;2023-03-14T09:26:37;0.00;;;0.00;;
39362;SDS011;25088;43.238;23.110;2023-03-14T09:29:03;0.00;;;0.00;;
39362;SDS011;25088;43.238;23.110;2023-03-14T09:31:28;0.00;;;0.00;;
39362;SDS011;25088;43.238;23.110;2023-03-14T09:33:54;0.00;;;0.00;;
39362;SDS011;25088;43.238;23.110;2023-03-14T09:36:20;0.00;;;0.00;;
39362;SDS011;25088;43.238;23.110;2023-03-14T09:38:46;0.00;;;0.00;;
39362;SDS011;25088;43.238;23.110;2023-03-14T09:41:21;0.00;;;0.00;;
39362;SDS011;25088;43.238;23.110;2023-03-14T09:43:50;0.00;;;0.00;;
39362;SDS011;25088;43.238;23.110;2023-03-14T09:46:28;0.00;;;0.00;;
39362;SDS011;25088;43.238;23.110;2023-03-14T09:48:54;0.00;;;0.00;;
39362;SDS011;25088;43.238;23.110;2023-03-14T09:51:20;0.00;;;0.00;;
39362;SDS011;25088;43.238;23.110;2023-03-14T09:53:49;0.00;;;0.00;;
39362;SDS011;25088;43.238;23.110;2023-03-14T09:56:19;0.00;;;0.00;;
39362;SDS011;25088;43.238;23.110;2023-03-14T09:58:51;0.00;;;0.00;;
39362;SDS011;25088;43.238;23.110;2023-03-14T10:01:30;0.00;;;0.00;;
39362;SDS011;25088;43.238;23.110;2023-03-14T10:03:58;0.00;;;0.00;;
39362;SDS011;25088;43.238;23.110;2023-03-14T10:06:28;0.00;;;0.00;;
39362;SDS011;25088;43.238;23.110;2023-03-14T10:08:55;0.00;;;0.00;;
39362;SDS011;25088;43.238;23.110;2023-03-14T10:11:24;0.00;;;0.00;;
39362;SDS011;25088;43.238;23.110;2023-03-14T10:14:01;0.00;;;0.00;;
39362;SDS011;25088;43.238;23.110;2023-03-14T10:16:36;0.00;;;0.00;;
39362;SDS011;25088;43.238;23.110;2023-03-14T10:19:14;0.00;;;0.00;;
39362;SDS011;25088;43.238;23.110;2023-03-14T10:21:53;0.00;;;0.00;;
39362;SDS011;25088;43.238;23.110;2023-03-14T10:24:26;0.00;;;0.00;;
39362;SDS011;25088;43.238;23.110;2023-03-14T10:29:27;0.00;;;0.00;;
39362;SDS011;25088;43.238;23.110;2023-03-14T10:34:25;0.00;;;0.00;;
39362;SDS011;25088;43.238;23.110;2023-03-14T10:39:27;0.00;;;0.00;;
39362;SDS011;25088;43.238;23.110;2023-03-14T10:42:04;0.00;;;0.00;;
39362;SDS011;25088;43.238;23.110;2023-03-14T10:44:37;0.00;;;0.00;;
39362;SDS011;25088;43.238;23.110;2023-03-14T10:47:04;0.00;;;0.00;;
39362;SDS011;25088;43.238;23.110;2023-03-14T10:49:38;0.00;;;0.00;;
39362;SDS011;25088;43.238;23.110;2023-03-14T10:54:57;0.00;;;0.00;;
39362;SDS011;25088;43.238;23.110;2023-03-14T10:57:27;0.00;;;0.00;;
39362;SDS011;25088;43.238;23.110;2023-03-14T10:59:53;0.00;;;0.00;;
39362;SDS011;25088;43.238;23.110;2023-03-14T11:05:17;0.00;;;0.00;;
39362;SDS011;25088;43.238;23.110;2023-03-14T11:07:51;0.00;;;0.00;;
39362;SDS011;25088;43.238;23.110;2023-03-14T11:10:37;0.00;;;0.00;;
39362;SDS011;25088;43.238;23.110;2023-03-14T11:16:09;0.00;;;0.00;;
39362;SDS011;25088;43.238;23.110;2023-03-14T11:19:00;0.00;;;0.00;;
39362;SDS011;25088;43.238;23.110;2023-03-14T11:27:23;0.00;;;0.00;;
39362;SDS011;25088;43.238;23.110;2023-03-14T11:30:00;0.00;;;0.00;;
39362;SDS011;25088;43.238;23.110;2023-03-14T11:35:20;0.00;;;0.00;;
39362;SDS011;25088;43.238;23.110;2023-03-14T11:37:52;0.00;;;0.00;;
39362;SDS011;25088;43.238;23.110;2023-03-14T11:40:21;0.00;;;0.00;;
39362;SDS011;25088;43.238;23.110;2023-03-14T11:43:04;0.00;;;0.00;;
39362;SDS011;25088;43.238;23.110;2023-03-14T11:45:37;0.00;;;0.00;;
39362;SDS011;25088;43.238;23.110;2023-03-14T11:48:19;0.00;;;0.00;;
39362;SDS011;25088;43.238;23.110;2023-03-14T11:50:47;0.00;;;0.00;;
39362;SDS011;25088;43.238;23.110;2023-03-14T11:53:22;0.00;;;0.00;;
39362;SDS011;25088;43.238;23.110;2023-03-14T11:55:52;0.00;;;0.00;;
39362;SDS011;25088;43.238;23.110;2023-03-14T11:58:31;0.00;;;0.00;;
39362;SDS011;25088;43.238;23.110;2023-03-14T12:01:02;0.00;;;0.00;;
39362;SDS011;25088;43.238;23.110;2023-03-14T12:03:55;0.00;;;0.00;;
39362;SDS011;25088;43.238;23.110;2023-03-14T12:06:49;0.00;;;0.00;;
39362;SDS011;25088;43.238;23.110;2023-03-14T12:09:16;0.00;;;0.00;;
39362;SDS011;25088;43.238;23.110;2023-03-14T12:11:47;0.00;;;0.00;;
39362;SDS011;25088;43.238;23.110;2023-03-14T12:14:33;0.00;;;0.00;;
39362;SDS011;25088;43.238;23.110;2023-03-14T12:17:07;0.00;;;0.00;;
39362;SDS011;25088;43.238;23.110;2023-03-14T12:19:59;0.00;;;0.00;;
39362;SDS011;25088;43.238;23.110;2023-03-14T12:22:34;0.00;;;0.00;;
39362;SDS011;25088;43.238;23.110;2023-03-14T12:28:20;0.00;;;0.00;;
39362;SDS011;25088;43.238;23.110;2023-03-14T12:30:55;0.00;;;0.00;;
39362;SDS011;25088;43.238;23.110;2023-03-14T12:33:21;0.00;;;0.00;;
39362;SDS011;25088;43.238;23.110;2023-03-14T12:35:52;0.00;;;0.00;;
39362;SDS011;25088;43.238;23.110;2023-03-14T12:43:45;0.00;;;0.00;;
39362;SDS011;25088;43.238;23.110;2023-03-14T12:51:37;0.10;;;0.10;;
39362;SDS011;25088;43.238;23.110;2023-03-14T12:56:50;0.00;;;0.00;;
39362;SDS011;25088;43.238;23.110;2023-03-14T12:59:36;0.00;;;0.00;;
39362;SDS011;25088;43.238;23.110;2023-03-14T13:12:47;0.00;;;0.00;;
39362;SDS011;25088;43.238;23.110;2023-03-14T13:15:21;0.00;;;0.00;;
39362;SDS011;25088;43.238;23.110;2023-03-14T13:17:53;0.00;;;0.00;;
39362;SDS011;25088;43.238;23.110;2023-03-14T13:20:28;0.00;;;0.00;;
39362;SDS011;25088;43.238;23.110;2023-03-14T13:22:56;0.00;;;0.00;;
39362;SDS011;25088;43.238;23.110;2023-03-14T13:25:22;0.00;;;0.00;;
39362;SDS011;25088;43.238;23.110;2023-03-14T13:27:48;0.00;;;0.00;;
39362;SDS011;25088;43.238;23.110;2023-03-14T13:30:27;0.00;;;0.00;;
39362;SDS011;25088;43.238;23.110;2023-03-14T13:33:00;0.00;;;0.00;;
39362;SDS011;25088;43.238;23.110;2023-03-14T13:35:30;0.00;;;0.00;;
39362;SDS011;25088;43.238;23.110;2023-03-14T13:38:05;0.00;;;0.00;;
39362;SDS011;25088;43.238;23.110;2023-03-14T13:40:33;0.00;;;0.00;;
39362;SDS011;25088;43.238;23.110;2023-03-14T13:43:04;0.00;;;0.00;;
39362;SDS011;25088;43.238;23.110;2023-03-14T13:46:12;0.00;;;0.00;;
39362;SDS011;25088;43.238;23.110;2023-03-14T13:48:32;0.00;;;0.00;;
39362;SDS011;25088;43.238;23.110;2023-03-14T13:51:09;0.00;;;0.00;;
39362;SDS011;25088;43.238;23.110;2023-03-14T13:56:15;0.00;;;0.00;;
39362;SDS011;25088;43.238;23.110;2023-03-14T13:58:42;0.00;;;0.00;;
39362;SDS011;25088;43.238;23.110;2023-03-14T14:01:13;0.00;;;0.00;;
39362;SDS011;25088;43.238;23.110;2023-03-14T14:03:42;0.00;;;0.00;;
39362;SDS011;25088;43.238;23.110;2023-03-14T14:06:22;0.00;;;0.00;;
39362;SDS011;25088;43.238;23.110;2023-03-14T14:14:20;0.00;;;0.00;;
39362;SDS011;25088;43.238;23.110;2023-03-14T14:16:50;0.00;;;0.00;;
39362;SDS011;25088;43.238;23.110;2023-03-14T14:19:17;0.00;;;0.00;;
39362;SDS011;25088;43.238;23.110;2023-03-14T14:21:46;0.00;;;0.00;;
39362;SDS011;25088;43.238;23.110;2023-03-14T14:24:12;0.00;;;0.00;;
39362;SDS011;25088;43.238;23.110;2023-03-14T14:26:41;0.00;;;0.00;;
39362;SDS011;25088;43.238;23.110;2023-03-14T14:29:20;0.00;;;0.00;;
39362;SDS011;25088;43.238;23.110;2023-03-14T14:37:21;0.00;;;0.00;;
39362;SDS011;25088;43.238;23.110;2023-03-14T14:39:49;0.00;;;0.00;;
39362;SDS011;25088;43.238;23.110;2023-03-14T14:42:18;0.00;;;0.00;;
39362;SDS011;25088;43.238;23.110;2023-03-14T14:44:49;0.00;;;0.00;;
39362;SDS011;25088;43.238;23.110;2023-03-14T14:47:20;0.00;;;0.00;;
39362;SDS011;25088;43.238;23.110;2023-03-14T14:49:48;0.00;;;0.00;;
39362;SDS011;25088;43.238;23.110;2023-03-14T14:52:15;0.00;;;0.00;;
39362;SDS011;25088;43.238;23.110;2023-03-14T14:54:44;0.00;;;0.00;;
39362;SDS011;25088;43.238;23.110;2023-03-14T14:57:23;0.00;;;0.00;;
39362;SDS011;25088;43.238;23.110;2023-03-14T14:59:55;0.00;;;0.00;;
39362;SDS011;25088;43.238;23.110;2023-03-14T15:05:13;0.00;;;0.00;;
39362;SDS011;25088;43.238;23.110;2023-03-14T15:07:43;0.00;;;0.00;;
39362;SDS011;25088;43.238;23.110;2023-03-14T15:10:10;0.00;;;0.00;;
39362;SDS011;25088;43.238;23.110;2023-03-14T15:12:37;0.00;;;0.00;;
39362;SDS011;25088;43.238;23.110;2023-03-14T15:15:03;0.00;;;0.00;;
39362;SDS011;25088;43.238;23.110;2023-03-14T15:17:28;0.00;;;0.00;;
39362;SDS011;25088;43.238;23.110;2023-03-14T15:19:54;0.00;;;0.00;;
39362;SDS011;25088;43.238;23.110;2023-03-14T15:22:22;0.00;;;0.00;;
39362;SDS011;25088;43.238;23.110;2023-03-14T15:24:47;0.00;;;0.00;;
39362;SDS011;25088;43.238;23.110;2023-03-14T15:27:14;0.00;;;0.00;;
39362;SDS011;25088;43.238;23.110;2023-03-14T15:29:41;0.00;;;0.00;;
39362;SDS011;25088;43.238;23.110;2023-03-14T15:32:14;0.00;;;0.00;;
39362;SDS011;25088;43.238;23.110;2023-03-14T15:34:41;0.00;;;0.00;;
39362;SDS011;25088;43.238;23.110;2023-03-14T15:37:13;0.00;;;0.00;;
39362;SDS011;25088;43.238;23.110;2023-03-14T15:39:40;0.00;;;0.00;;
39362;SDS011;25088;43.238;23.110;2023-03-14T15:42:06;0.00;;;0.00;;
39362;SDS011;25088;43.238;23.110;2023-03-14T15:44:35;0.00;;;0.00;;
39362;SDS011;25088;43.238;23.110;2023-03-14T15:47:01;0.00;;;0.00;;
39362;SDS011;25088;43.238;23.110;2023-03-14T15:49:27;0.00;;;0.00;;
39362;SDS011;25088;43.238;23.110;2023-03-14T15:51:53;0.00;;;0.00;;
39362;SDS011;25088;43.238;23.110;2023-03-14T15:54:18;0.00;;;0.00;;
39362;SDS011;25088;43.238;23.110;2023-03-14T15:56:44;0.00;;;0.00;;
39362;SDS011;25088;43.238;23.110;2023-03-14T15:59:09;0.00;;;0.00;;
39362;SDS011;25088;43.238;23.110;2023-03-14T16:01:35;0.00;;;0.00;;
39362;SDS011;25088;43.238;23.110;2023-03-14T16:04:00;0.00;;;0.00;;
39362;SDS011;25088;43.238;23.110;2023-03-14T16:06:27;0.00;;;0.00;;